createdAt,value
2022-11-09T00:00:51.124Z,2.20
2022-11-09T00:01:51.091Z,2.20
2022-11-09T00:02:51.057Z,2.10
2022-11-09T00:03:51.054Z,2.00
2022-11-09T00:04:51.046Z,2.10
2022-11-09T00:05:51.048Z,2.10
2022-11-09T00:06:51.052Z,2.00
2022-11-09T00:07:51.011Z,2.30
2022-11-09T00:08:50.993Z,2.30
2022-11-09T00:09:51.055Z,2.20
2022-11-09T00:10:51.008Z,2.20
2022-11-09T00:11:50.973Z,2.10
2022-11-09T00:12:50.951Z,2.30
2022-11-09T00:13:50.945Z,2.20
2022-11-09T00:14:50.941Z,2.40
2022-11-09T00:15:50.948Z,2.20
2022-11-09T00:16:50.914Z,2.10
2022-11-09T00:17:50.910Z,2.20
2022-11-09T00:18:50.896Z,2.40
2022-11-09T00:19:50.897Z,2.30
2022-11-09T00:20:50.891Z,2.40
2022-11-09T00:21:50.865Z,2.20
2022-11-09T00:22:50.879Z,2.20
2022-11-09T00:23:50.841Z,2.50
2022-11-09T00:24:50.835Z,2.30
2022-11-09T00:25:50.840Z,2.70
2022-11-09T00:26:50.816Z,2.30
2022-11-09T00:27:50.812Z,2.20
2022-11-09T00:28:50.800Z,2.20
2022-11-09T00:29:50.784Z,2.60
2022-11-09T00:30:50.807Z,2.50
2022-11-09T00:31:50.771Z,2.50
2022-11-09T00:32:50.752Z,2.30
2022-11-09T00:33:50.756Z,2.50
2022-11-09T00:34:50.740Z,2.50
2022-11-09T00:35:50.758Z,2.40
2022-11-09T00:36:50.714Z,2.60
2022-11-09T00:37:50.783Z,2.60
2022-11-09T00:38:50.705Z,2.30
2022-11-09T00:39:50.696Z,2.40
2022-11-09T00:40:50.696Z,2.40
2022-11-09T00:41:50.671Z,2.40
2022-11-09T00:42:50.663Z,2.60
2022-11-09T00:43:50.648Z,2.50
2022-11-09T00:44:50.640Z,2.60
2022-11-09T00:45:50.655Z,2.40
2022-11-09T00:46:50.616Z,2.60
2022-11-09T00:47:50.609Z,2.30
2022-11-09T00:48:50.596Z,2.40
2022-11-09T00:49:50.585Z,2.60
2022-11-09T00:50:50.597Z,2.30
2022-11-09T00:51:50.568Z,2.40
2022-11-09T00:52:50.560Z,2.60
2022-11-09T00:53:50.547Z,2.50
2022-11-09T00:54:50.537Z,2.50
2022-11-09T00:55:50.528Z,2.50
2022-11-09T00:56:50.537Z,2.50
2022-11-09T00:57:50.514Z,2.40
2022-11-09T00:58:50.518Z,2.40
2022-11-09T00:59:50.492Z,2.30
2022-11-09T01:00:50.560Z,2.40
2022-11-09T01:01:50.479Z,2.20
2022-11-09T01:02:51.453Z,2.40
2022-11-09T01:03:50.448Z,2.60
2022-11-09T01:04:50.442Z,2.60
2022-11-09T01:05:50.454Z,2.60
2022-11-09T01:06:50.485Z,2.30
2022-11-09T01:07:50.436Z,2.50
2022-11-09T01:08:50.396Z,2.40
2022-11-09T01:09:50.384Z,2.60
2022-11-09T01:10:50.372Z,2.60
2022-11-09T01:11:50.384Z,2.60
2022-11-09T01:12:50.360Z,2.30
2022-11-09T01:13:50.349Z,2.50
2022-11-09T01:14:50.340Z,2.50
2022-11-09T01:15:50.320Z,2.60
2022-11-09T01:16:50.334Z,2.40
2022-11-09T01:17:50.300Z,2.50
2022-11-09T01:18:50.291Z,2.50
2022-11-09T01:19:50.323Z,2.50
2022-11-09T01:20:50.275Z,2.30
2022-11-09T01:21:50.285Z,2.80
2022-11-09T01:22:50.252Z,2.50
2022-11-09T01:23:50.238Z,2.60
2022-11-09T01:24:50.226Z,2.50
2022-11-09T01:25:51.247Z,2.60
2022-11-09T01:26:50.231Z,2.60
2022-11-09T01:27:50.201Z,2.40
2022-11-09T01:28:50.193Z,2.60
2022-11-09T01:29:50.194Z,2.30
2022-11-09T01:30:50.180Z,2.60
2022-11-09T01:31:50.182Z,2.40
2022-11-09T01:32:50.196Z,2.40
2022-11-09T01:33:50.150Z,2.60
2022-11-09T01:34:50.133Z,2.40
2022-11-09T01:35:50.128Z,2.70
2022-11-09T01:36:50.132Z,2.70
2022-11-09T01:37:50.103Z,2.30
2022-11-09T01:38:50.099Z,2.50
2022-11-09T01:39:50.080Z,2.50
2022-11-09T01:40:50.074Z,2.60
2022-11-09T01:41:50.083Z,2.50
2022-11-09T01:42:50.062Z,2.60
2022-11-09T01:43:50.046Z,2.50
2022-11-09T01:44:50.031Z,2.70
2022-11-09T01:45:50.052Z,2.60
2022-11-09T01:46:50.035Z,2.70
2022-11-09T01:47:49.993Z,2.60
2022-11-09T01:48:49.999Z,2.80
2022-11-09T01:49:49.988Z,2.70
2022-11-09T01:50:49.971Z,2.70
2022-11-09T01:51:50.003Z,2.70
2022-11-09T01:52:49.948Z,2.70
2022-11-09T01:53:49.951Z,2.90
2022-11-09T01:54:49.935Z,2.60
2022-11-09T01:55:49.924Z,2.80
2022-11-09T01:56:49.936Z,3.00
2022-11-09T01:57:49.896Z,2.70
2022-11-09T01:58:49.906Z,3.10
2022-11-09T01:59:49.888Z,2.80
2022-11-09T02:00:49.895Z,2.70
2022-11-09T02:01:49.884Z,2.80
2022-11-09T02:02:49.865Z,2.70
2022-11-09T02:03:49.851Z,2.80
2022-11-09T02:04:49.842Z,3.00
2022-11-09T02:05:49.821Z,3.00
2022-11-09T02:06:49.887Z,3.10
2022-11-09T02:07:49.809Z,2.90
2022-11-09T02:08:49.781Z,3.00
2022-11-09T02:09:49.788Z,3.00
2022-11-09T02:10:49.770Z,3.00
2022-11-09T02:11:49.782Z,3.00
2022-11-09T02:12:49.754Z,2.80
2022-11-09T02:13:49.747Z,2.90
2022-11-09T02:14:50.743Z,3.20
2022-11-09T02:15:49.728Z,3.00
2022-11-09T02:16:49.748Z,3.10
2022-11-09T02:17:49.699Z,3.20
2022-11-09T02:18:49.695Z,3.50
2022-11-09T02:19:49.718Z,3.40
2022-11-09T02:20:49.670Z,3.00
2022-11-09T02:21:49.675Z,3.00
2022-11-09T02:22:49.657Z,3.10
2022-11-09T02:23:49.643Z,3.00
2022-11-09T02:24:55.256Z,3.00
2022-11-09T02:25:50.633Z,2.90
2022-11-09T02:26:49.639Z,2.80
2022-11-09T02:27:49.603Z,2.80
2022-11-09T02:28:49.586Z,3.00
2022-11-09T02:29:49.582Z,3.00
2022-11-09T02:30:49.570Z,3.40
2022-11-09T02:31:49.580Z,3.10
2022-11-09T02:32:49.551Z,3.10
2022-11-09T02:33:49.553Z,3.40
2022-11-09T02:34:49.528Z,3.20
2022-11-09T02:35:49.586Z,3.10
2022-11-09T02:36:49.520Z,3.20
2022-11-09T02:37:49.505Z,3.30
2022-11-09T02:38:49.500Z,3.20
2022-11-09T02:39:49.487Z,3.50
2022-11-09T02:40:49.465Z,3.40
2022-11-09T02:41:49.495Z,3.20
2022-11-09T02:42:49.454Z,3.50
2022-11-09T02:43:49.434Z,3.20
2022-11-09T02:44:50.433Z,3.20
2022-11-09T02:45:49.423Z,3.40
2022-11-09T02:46:49.431Z,3.30
2022-11-09T02:47:49.403Z,3.30
2022-11-09T02:48:49.398Z,3.60
2022-11-09T02:49:49.369Z,3.60
2022-11-09T02:50:50.372Z,3.50
2022-11-09T02:51:49.429Z,3.90
2022-11-09T02:52:49.347Z,3.50
2022-11-09T02:53:49.343Z,3.50
2022-11-09T02:54:49.336Z,3.50
2022-11-09T02:55:49.323Z,3.60
2022-11-09T02:56:49.333Z,3.80
2022-11-09T02:57:49.303Z,3.80
2022-11-09T02:58:49.291Z,3.90
2022-11-09T02:59:49.288Z,3.70
2022-11-09T03:00:49.319Z,3.50
2022-11-09T03:01:49.309Z,4.00
2022-11-09T03:02:49.251Z,3.90
2022-11-09T03:03:49.246Z,4.40
2022-11-09T03:04:49.220Z,3.90
2022-11-09T03:05:49.219Z,4.40
2022-11-09T03:06:49.352Z,4.20
2022-11-09T03:07:49.205Z,3.90
2022-11-09T03:08:49.183Z,4.00
2022-11-09T03:09:49.176Z,4.20
2022-11-09T03:10:49.187Z,4.20
2022-11-09T03:11:49.194Z,4.20
2022-11-09T03:12:49.155Z,3.90
2022-11-09T03:13:49.145Z,4.40
2022-11-09T03:14:49.130Z,4.10
2022-11-09T03:15:49.134Z,4.30
2022-11-09T03:16:50.811Z,4.10
2022-11-09T03:17:50.099Z,4.30
2022-11-09T03:18:49.094Z,4.30
2022-11-09T03:19:49.084Z,3.90
2022-11-09T03:20:49.089Z,4.20
2022-11-09T03:21:49.059Z,4.30
2022-11-09T03:22:49.056Z,4.60
2022-11-09T03:23:49.044Z,4.30
2022-11-09T03:24:49.065Z,4.60
2022-11-09T03:25:49.052Z,4.50
2022-11-09T03:26:49.015Z,4.70
2022-11-09T03:27:49.008Z,4.70
2022-11-09T03:28:48.995Z,4.50
2022-11-09T03:29:48.991Z,4.80
2022-11-09T03:30:48.995Z,4.40
2022-11-09T03:31:48.956Z,4.70
2022-11-09T03:32:50.810Z,4.80
2022-11-09T03:33:48.944Z,4.80
2022-11-09T03:34:48.936Z,4.80
2022-11-09T03:35:48.939Z,4.70
2022-11-09T03:36:48.904Z,5.10
2022-11-09T03:37:48.955Z,4.70
2022-11-09T03:38:48.888Z,5.30
2022-11-09T03:39:48.880Z,5.00
2022-11-09T03:40:48.879Z,5.50
2022-11-09T03:41:48.860Z,5.30
2022-11-09T03:42:48.848Z,5.50
2022-11-09T03:44:15.239Z,5.10
2022-11-09T03:44:48.834Z,5.10
2022-11-09T03:45:48.831Z,5.20
2022-11-09T03:46:48.811Z,5.40
2022-11-09T03:47:48.803Z,4.90
2022-11-09T03:48:48.792Z,5.40
2022-11-09T03:49:48.777Z,5.10
2022-11-09T03:50:48.783Z,5.10
2022-11-09T03:51:48.755Z,4.80
2022-11-09T03:52:48.745Z,4.80
2022-11-09T03:53:48.736Z,4.70
2022-11-09T03:54:48.723Z,4.70
2022-11-09T03:55:48.739Z,4.60
2022-11-09T03:56:48.715Z,4.70
2022-11-09T03:57:48.699Z,4.90
2022-11-09T03:58:48.697Z,3.90
2022-11-09T03:59:48.663Z,4.30
2022-11-09T04:00:48.681Z,4.10
2022-11-09T04:01:48.731Z,4.30
2022-11-09T04:02:48.645Z,4.20
2022-11-09T04:03:48.837Z,4.00
2022-11-09T04:04:48.620Z,3.80
2022-11-09T04:05:48.629Z,3.90
2022-11-09T04:06:48.675Z,3.90
2022-11-09T04:07:48.588Z,3.90
2022-11-09T04:08:51.557Z,3.80
2022-11-09T04:09:49.569Z,4.20
2022-11-09T04:10:48.580Z,4.40
2022-11-09T04:11:48.552Z,4.10
2022-11-09T04:12:48.545Z,3.90
2022-11-09T04:13:48.532Z,4.90
2022-11-09T04:14:48.532Z,4.50
2022-11-09T04:15:48.530Z,5.10
2022-11-09T04:16:48.503Z,5.10
2022-11-09T04:17:48.490Z,4.80
2022-11-09T04:18:48.479Z,4.50
2022-11-09T04:19:48.465Z,4.80
2022-11-09T04:20:48.478Z,4.50
2022-11-09T04:21:48.453Z,4.50
2022-11-09T04:22:48.445Z,4.00
2022-11-09T04:23:48.429Z,4.30
2022-11-09T04:24:48.432Z,4.20
2022-11-09T04:25:48.435Z,4.20
2022-11-09T04:26:48.404Z,4.20
2022-11-09T04:27:48.432Z,4.50
2022-11-09T04:28:48.386Z,4.20
2022-11-09T04:29:48.374Z,4.10
2022-11-09T04:30:48.375Z,4.30
2022-11-09T04:31:48.345Z,4.00
2022-11-09T04:32:48.346Z,3.90
2022-11-09T04:33:48.334Z,4.30
2022-11-09T04:34:48.322Z,3.80
2022-11-09T04:35:48.347Z,3.90
2022-11-09T04:36:48.298Z,3.80
2022-11-09T04:37:48.290Z,3.70
2022-11-09T04:38:48.276Z,3.80
2022-11-09T04:39:48.264Z,3.80
2022-11-09T04:40:48.284Z,3.90
2022-11-09T04:41:48.250Z,3.70
2022-11-09T04:42:48.236Z,3.60
2022-11-09T04:43:48.265Z,3.70
2022-11-09T04:44:48.214Z,3.70
2022-11-09T04:45:48.231Z,3.40
2022-11-09T04:46:48.196Z,3.50
2022-11-09T04:47:48.183Z,3.70
2022-11-09T04:48:48.171Z,3.70
2022-11-09T04:49:48.163Z,3.50
2022-11-09T04:50:48.172Z,4.00
2022-11-09T04:51:48.135Z,3.90
2022-11-09T04:52:48.135Z,3.40
2022-11-09T04:53:48.127Z,3.60
2022-11-09T04:54:48.139Z,3.60
2022-11-09T04:55:48.103Z,3.80
2022-11-09T04:56:48.098Z,3.70
2022-11-09T04:57:48.084Z,3.70
2022-11-09T04:58:48.073Z,3.80
2022-11-09T04:59:48.080Z,3.50
2022-11-09T05:00:48.051Z,3.50
2022-11-09T05:01:48.056Z,3.30
2022-11-09T05:02:48.034Z,3.30
2022-11-09T05:03:48.071Z,3.40
2022-11-09T05:04:48.028Z,3.20
2022-11-09T05:05:48.654Z,3.60
2022-11-09T05:06:49.031Z,3.60
2022-11-09T05:07:47.966Z,3.20
2022-11-09T05:08:47.969Z,3.40
2022-11-09T05:09:47.988Z,3.10
2022-11-09T05:10:47.944Z,3.10
2022-11-09T05:11:47.940Z,3.20
2022-11-09T05:12:47.925Z,3.50
2022-11-09T05:13:47.911Z,3.10
2022-11-09T05:14:47.926Z,3.10
2022-11-09T05:15:47.903Z,3.20
2022-11-09T05:16:47.896Z,3.20
2022-11-09T05:17:47.876Z,3.00
2022-11-09T05:18:47.868Z,3.00
2022-11-09T05:19:48.878Z,2.90
2022-11-09T05:20:47.842Z,3.10
2022-11-09T05:21:47.832Z,3.00
2022-11-09T05:22:47.822Z,3.10
2022-11-09T05:23:47.808Z,3.20
2022-11-09T05:24:47.826Z,3.30
2022-11-09T05:25:47.796Z,3.10
2022-11-09T05:26:47.783Z,3.00
2022-11-09T05:27:47.771Z,3.20
2022-11-09T05:28:47.757Z,3.00
2022-11-09T05:29:47.754Z,3.20
2022-11-09T05:30:47.766Z,3.30
2022-11-09T05:31:52.020Z,3.30
2022-11-09T05:32:47.738Z,3.10
2022-11-09T05:33:47.716Z,3.60
2022-11-09T05:34:47.706Z,3.70
2022-11-09T05:35:47.716Z,3.30
2022-11-09T05:36:47.696Z,3.30
2022-11-09T05:37:47.679Z,3.40
2022-11-09T05:38:47.667Z,3.20
2022-11-09T05:39:47.655Z,3.20
2022-11-09T05:40:47.683Z,3.30
2022-11-09T05:41:47.638Z,3.10
2022-11-09T05:42:47.630Z,3.20
2022-11-09T05:43:47.624Z,3.40
2022-11-09T05:44:47.646Z,3.10
2022-11-09T05:45:47.623Z,3.00
2022-11-09T05:46:47.585Z,3.30
2022-11-09T05:47:47.700Z,3.10
2022-11-09T05:48:47.604Z,3.10
2022-11-09T05:49:47.558Z,2.90
2022-11-09T05:50:47.568Z,3.30
2022-11-09T05:51:47.527Z,3.10
2022-11-09T05:52:47.548Z,3.20
2022-11-09T05:53:47.524Z,3.10
2022-11-09T05:54:47.504Z,3.00
2022-11-09T05:55:47.505Z,3.30
2022-11-09T05:56:47.488Z,2.90
2022-11-09T05:57:47.476Z,3.00
2022-11-09T05:58:47.463Z,3.10
2022-11-09T05:59:47.452Z,3.30
2022-11-09T06:00:47.464Z,3.20
2022-11-09T06:01:47.464Z,3.20
2022-11-09T06:02:47.566Z,3.00
2022-11-09T06:03:47.407Z,3.30
2022-11-09T06:04:47.394Z,3.50
2022-11-09T06:05:47.406Z,3.10
2022-11-09T06:06:47.489Z,3.60
2022-11-09T06:07:47.372Z,3.20
2022-11-09T06:08:47.358Z,3.30
2022-11-09T06:09:47.350Z,3.50
2022-11-09T06:10:47.359Z,3.10
2022-11-09T06:11:47.332Z,3.10
2022-11-09T06:12:47.311Z,3.00
2022-11-09T06:13:47.369Z,3.10
2022-11-09T06:14:47.319Z,2.90
2022-11-09T06:15:47.300Z,3.00
2022-11-09T06:16:47.272Z,2.70
2022-11-09T06:17:47.356Z,2.70
2022-11-09T06:18:47.275Z,2.70
2022-11-09T06:19:47.243Z,2.50
2022-11-09T06:20:47.241Z,2.60
2022-11-09T06:21:47.223Z,2.80
2022-11-09T06:22:47.209Z,2.60
2022-11-09T06:23:47.195Z,2.60
2022-11-09T06:24:48.197Z,2.60
2022-11-09T06:25:47.228Z,2.60
2022-11-09T06:26:47.177Z,2.30
2022-11-09T06:27:47.170Z,2.40
2022-11-09T06:28:47.153Z,2.40
2022-11-09T06:29:47.157Z,2.40
2022-11-09T06:30:48.154Z,2.40
2022-11-09T06:31:47.137Z,2.60
2022-11-09T06:32:47.121Z,2.40
2022-11-09T06:33:47.104Z,2.40
2022-11-09T06:34:47.103Z,2.30
2022-11-09T06:35:50.839Z,2.50
2022-11-09T06:36:48.067Z,2.50
2022-11-09T06:37:47.074Z,2.20
2022-11-09T06:38:47.050Z,2.40
2022-11-09T06:39:47.045Z,2.40
2022-11-09T06:40:47.041Z,2.30
2022-11-09T06:41:47.739Z,2.20
2022-11-09T06:42:48.074Z,2.20
2022-11-09T06:43:47.001Z,2.30
2022-11-09T06:44:46.995Z,2.10
2022-11-09T06:45:47.016Z,2.30
2022-11-09T06:46:46.976Z,1.90
2022-11-09T06:47:46.960Z,1.90
2022-11-09T06:48:51.864Z,2.10
2022-11-09T06:49:48.940Z,2.10
2022-11-09T06:50:46.953Z,1.90
2022-11-09T06:51:46.942Z,2.10
2022-11-09T06:52:46.916Z,2.10
2022-11-09T06:53:46.904Z,1.90
2022-11-09T06:54:46.895Z,2.00
2022-11-09T06:55:50.597Z,1.90
2022-11-09T06:56:46.876Z,2.00
2022-11-09T06:57:46.864Z,2.00
2022-11-09T06:58:46.857Z,2.00
2022-11-09T06:59:46.843Z,1.80
2022-11-09T07:00:46.922Z,2.00
2022-11-09T07:01:46.871Z,2.20
2022-11-09T07:02:46.812Z,2.00
2022-11-09T07:03:46.803Z,2.10
2022-11-09T07:04:46.790Z,1.90
2022-11-09T07:05:46.793Z,2.00
2022-11-09T07:06:46.790Z,1.80
2022-11-09T07:07:46.755Z,1.70
2022-11-09T07:08:47.754Z,1.80
2022-11-09T07:09:46.744Z,1.80
2022-11-09T07:10:46.751Z,1.60
2022-11-09T07:11:46.728Z,1.80
2022-11-09T07:12:46.706Z,1.70
2022-11-09T07:13:46.700Z,1.60
2022-11-09T07:14:46.691Z,1.60
2022-11-09T07:15:46.703Z,1.70
2022-11-09T07:16:46.671Z,1.60
2022-11-09T07:17:46.658Z,1.80
2022-11-09T07:18:46.649Z,1.60
2022-11-09T07:19:46.639Z,1.50
2022-11-09T07:20:46.660Z,1.60
2022-11-09T07:21:46.616Z,1.60
2022-11-09T07:22:46.633Z,1.60
2022-11-09T07:23:46.633Z,1.60
2022-11-09T07:24:46.586Z,1.60
2022-11-09T07:25:46.588Z,1.50
2022-11-09T07:26:46.566Z,1.40
2022-11-09T07:27:46.558Z,1.60
2022-11-09T07:28:46.544Z,1.50
2022-11-09T07:29:46.534Z,1.70
2022-11-09T07:30:46.547Z,1.50
2022-11-09T07:31:46.518Z,1.60
2022-11-09T07:33:07.923Z,1.40
2022-11-09T07:33:48.502Z,1.60
2022-11-09T07:34:46.484Z,1.50
2022-11-09T07:35:46.518Z,1.60
2022-11-09T07:36:46.466Z,1.40
2022-11-09T07:37:46.453Z,1.40
2022-11-09T07:38:46.447Z,1.40
2022-11-09T07:39:46.422Z,1.50
2022-11-09T07:40:46.434Z,1.70
2022-11-09T07:41:46.419Z,1.30
2022-11-09T07:42:46.417Z,1.40
2022-11-09T07:43:46.382Z,1.50
2022-11-09T07:44:46.378Z,1.30
2022-11-09T07:45:46.388Z,1.50
2022-11-09T07:46:46.356Z,1.50
2022-11-09T07:47:46.355Z,1.40
2022-11-09T07:48:46.340Z,1.50
2022-11-09T07:49:46.346Z,1.30
2022-11-09T07:50:46.354Z,1.60
2022-11-09T07:51:46.323Z,1.20
2022-11-09T07:52:46.312Z,1.50
2022-11-09T07:53:46.295Z,1.30
2022-11-09T07:54:50.961Z,1.30
2022-11-09T07:55:47.338Z,1.30
2022-11-09T07:56:46.264Z,1.20
2022-11-09T07:57:46.255Z,1.40
2022-11-09T07:58:47.250Z,1.10
2022-11-09T07:59:46.237Z,1.30
2022-11-09T08:00:46.246Z,1.30
2022-11-09T08:01:46.250Z,1.30
2022-11-09T08:02:46.213Z,1.30
2022-11-09T08:03:46.186Z,1.40
2022-11-09T08:04:46.204Z,1.50
2022-11-09T08:05:46.195Z,1.20
2022-11-09T08:06:46.216Z,1.30
2022-11-09T08:07:46.160Z,1.40
2022-11-09T08:08:46.149Z,1.30
2022-11-09T08:09:46.132Z,1.40
2022-11-09T08:10:46.162Z,1.20
2022-11-09T08:11:46.118Z,1.30
2022-11-09T08:12:46.110Z,1.60
2022-11-09T08:13:46.096Z,1.30
2022-11-09T08:14:46.081Z,1.40
2022-11-09T08:15:46.094Z,1.20
2022-11-09T08:16:46.062Z,1.40
2022-11-09T08:17:46.088Z,1.30
2022-11-09T08:18:46.036Z,1.50
2022-11-09T08:19:46.054Z,1.50
2022-11-09T08:20:46.042Z,1.50
2022-11-09T08:21:46.012Z,1.50
2022-11-09T08:22:46.000Z,1.40
2022-11-09T08:23:45.988Z,1.40
2022-11-09T08:24:45.974Z,1.40
2022-11-09T08:25:45.994Z,1.50
2022-11-09T08:26:45.960Z,1.40
2022-11-09T08:27:45.953Z,1.50
2022-11-09T08:28:45.943Z,1.40
2022-11-09T08:29:45.939Z,1.60
2022-11-09T08:30:45.943Z,1.50
2022-11-09T08:31:45.915Z,1.40
2022-11-09T08:32:45.982Z,1.50
2022-11-09T08:33:45.894Z,1.50
2022-11-09T08:34:45.888Z,1.30
2022-11-09T08:35:50.465Z,1.60
2022-11-09T08:36:46.853Z,1.50
2022-11-09T08:37:46.932Z,1.30
2022-11-09T08:38:45.848Z,1.50
2022-11-09T08:39:45.842Z,1.40
2022-11-09T08:40:45.844Z,1.60
2022-11-09T08:41:45.805Z,1.50
2022-11-09T08:42:45.799Z,1.40
2022-11-09T08:43:45.789Z,1.50
2022-11-09T08:44:45.784Z,1.50
2022-11-09T08:45:45.795Z,1.50
2022-11-09T08:46:45.767Z,1.40
2022-11-09T08:47:45.744Z,1.50
2022-11-09T08:48:45.742Z,1.40
2022-11-09T08:49:45.733Z,1.60
2022-11-09T08:50:45.742Z,1.80
2022-11-09T08:51:45.715Z,1.70
2022-11-09T08:52:45.720Z,1.60
2022-11-09T08:53:45.736Z,1.40
2022-11-09T08:54:45.687Z,1.50
2022-11-09T08:55:49.323Z,1.60
2022-11-09T08:56:46.665Z,1.60
2022-11-09T08:57:45.653Z,1.30
2022-11-09T08:58:45.644Z,1.50
2022-11-09T08:59:45.634Z,1.70
2022-11-09T09:00:45.644Z,1.50
2022-11-09T09:01:45.671Z,1.50
2022-11-09T09:02:45.605Z,1.50
2022-11-09T09:03:45.711Z,1.60
2022-11-09T09:04:45.593Z,1.60
2022-11-09T09:05:45.597Z,1.50
2022-11-09T09:06:45.607Z,1.50
2022-11-09T09:07:45.555Z,1.60
2022-11-09T09:08:45.543Z,1.60
2022-11-09T09:09:45.537Z,1.50
2022-11-09T09:10:45.541Z,1.50
2022-11-09T09:11:45.513Z,1.70
2022-11-09T09:12:45.503Z,1.80
2022-11-09T09:13:45.501Z,1.50
2022-11-09T09:14:45.470Z,1.70
2022-11-09T09:15:45.473Z,1.60
2022-11-09T09:16:45.454Z,1.70
2022-11-09T09:17:45.443Z,1.80
2022-11-09T09:18:45.434Z,1.60
2022-11-09T09:19:49.828Z,2.00
2022-11-09T09:20:45.429Z,1.90
2022-11-09T09:21:45.407Z,1.90
2022-11-09T09:22:45.394Z,2.00
2022-11-09T09:23:45.385Z,1.80
2022-11-09T09:24:45.367Z,1.90
2022-11-09T09:25:45.377Z,2.00
2022-11-09T09:26:45.353Z,1.80
2022-11-09T09:27:45.342Z,1.80
2022-11-09T09:28:45.327Z,2.10
2022-11-09T09:29:45.324Z,1.80
2022-11-09T09:30:45.356Z,1.80
2022-11-09T09:31:45.304Z,2.10
2022-11-09T09:32:45.299Z,1.80
2022-11-09T09:33:45.288Z,2.00
2022-11-09T09:34:45.271Z,1.70
2022-11-09T09:35:45.279Z,1.80
2022-11-09T09:36:48.191Z,1.80
2022-11-09T09:37:46.257Z,1.80
2022-11-09T09:38:45.245Z,1.90
2022-11-09T09:39:45.217Z,1.90
2022-11-09T09:40:45.231Z,2.10
2022-11-09T09:41:45.202Z,1.90
2022-11-09T09:42:45.200Z,1.60
2022-11-09T09:45:32.897Z,2.10
2022-11-09T09:46:32.916Z,2.00
2022-11-09T09:47:32.887Z,2.00
2022-11-09T09:48:32.879Z,2.00
2022-11-09T09:49:32.864Z,2.10
2022-11-09T09:50:32.901Z,2.10
2022-11-09T09:51:32.860Z,2.20
2022-11-09T09:52:32.837Z,2.00
2022-11-09T09:53:32.821Z,2.00
2022-11-09T09:54:32.818Z,2.10
2022-11-09T09:55:32.808Z,2.10
2022-11-09T09:56:32.821Z,2.20
2022-11-09T09:57:35.420Z,2.20
2022-11-09T09:58:32.779Z,2.50
2022-11-09T09:59:32.761Z,2.20
2022-11-09T10:00:32.755Z,2.30
2022-11-09T10:01:32.763Z,2.10
2022-11-09T10:02:32.736Z,2.20
2022-11-09T10:03:33.869Z,2.40
2022-11-09T10:04:33.871Z,2.20
2022-11-09T10:05:33.826Z,2.20
2022-11-09T10:06:33.846Z,2.30
2022-11-09T10:07:33.805Z,2.10
2022-11-09T10:08:33.788Z,2.20
2022-11-09T10:09:33.778Z,2.10
2022-11-09T10:10:33.758Z,2.30
2022-11-09T10:11:33.774Z,2.40
2022-11-09T10:12:33.750Z,2.10
2022-11-09T10:13:33.738Z,2.40
2022-11-09T10:14:33.736Z,2.50
2022-11-09T10:15:33.768Z,2.40
2022-11-09T10:16:33.737Z,2.50
2022-11-09T10:17:33.716Z,2.40
2022-11-09T10:18:33.693Z,2.30
2022-11-09T10:19:33.688Z,2.40
2022-11-09T10:20:33.689Z,2.30
2022-11-09T10:21:33.686Z,2.50
2022-11-09T10:22:33.672Z,2.30
2022-11-09T10:23:33.647Z,2.30
2022-11-09T10:24:33.650Z,2.40
2022-11-09T10:26:05.326Z,2.50
2022-11-09T10:26:35.645Z,2.50
2022-11-09T10:27:33.614Z,2.20
2022-11-09T10:28:54.236Z,2.20
2022-11-09T10:29:35.596Z,2.50
2022-11-09T10:30:33.597Z,2.30
2022-11-09T10:31:33.590Z,2.40
2022-11-09T10:32:33.564Z,2.30
2022-11-09T10:33:33.553Z,2.30
2022-11-09T10:34:33.538Z,2.20
2022-11-09T10:35:33.535Z,2.20
2022-11-09T10:36:33.547Z,2.60
2022-11-09T10:37:34.131Z,2.40
2022-11-09T10:38:33.503Z,2.60
2022-11-09T10:39:33.490Z,3.10
2022-11-09T10:40:33.479Z,2.90
2022-11-09T10:41:33.496Z,2.50
2022-11-09T10:42:33.464Z,2.20
2022-11-09T10:43:33.464Z,2.00
2022-11-09T10:44:33.453Z,2.00
2022-11-09T10:45:33.433Z,2.00
2022-11-09T10:46:33.447Z,2.10
2022-11-09T10:47:33.415Z,2.00
2022-11-09T10:48:33.407Z,2.20
2022-11-09T10:49:33.401Z,2.10
2022-11-09T10:50:33.387Z,2.00
2022-11-09T10:51:33.390Z,2.20
2022-11-09T10:52:33.365Z,2.10
2022-11-09T10:53:33.355Z,2.20
2022-11-09T10:54:33.346Z,2.20
2022-11-09T10:55:33.324Z,2.10
2022-11-09T10:56:41.874Z,2.20
2022-11-09T10:57:34.317Z,2.10
2022-11-09T10:58:33.309Z,2.10
2022-11-09T10:59:33.291Z,2.10
2022-11-09T11:00:33.286Z,2.00
2022-11-09T11:01:33.348Z,2.00
2022-11-09T11:02:33.264Z,2.10
2022-11-09T11:03:33.246Z,2.10
2022-11-09T11:04:33.245Z,2.10
2022-11-09T11:05:33.235Z,1.90
2022-11-09T11:06:33.359Z,2.10
2022-11-09T11:07:33.228Z,2.00
2022-11-09T11:08:33.202Z,1.90
2022-11-09T11:09:33.235Z,2.00
2022-11-09T11:10:33.181Z,2.00
2022-11-09T11:11:35.596Z,2.00
2022-11-09T11:12:34.166Z,2.10
2022-11-09T11:13:33.155Z,2.00
2022-11-09T11:14:33.197Z,2.00
2022-11-09T11:15:33.135Z,2.00
2022-11-09T11:16:33.148Z,2.00
2022-11-09T11:17:33.111Z,2.00
2022-11-09T11:18:33.102Z,1.90
2022-11-09T11:19:33.086Z,1.80
2022-11-09T11:20:33.089Z,2.00
2022-11-09T11:21:33.088Z,1.80
2022-11-09T11:22:33.066Z,2.00
2022-11-09T11:23:33.079Z,1.90
2022-11-09T11:24:33.044Z,1.80
2022-11-09T11:25:33.032Z,1.90
2022-11-09T11:26:33.039Z,1.90
2022-11-09T11:27:33.021Z,1.90
2022-11-09T11:28:33.005Z,2.00
2022-11-09T11:29:32.992Z,1.80
2022-11-09T11:30:33.030Z,2.20
2022-11-09T11:31:32.990Z,2.00
2022-11-09T11:32:32.966Z,1.80
2022-11-09T11:33:32.948Z,1.80
2022-11-09T11:34:58.373Z,2.20
2022-11-09T11:35:34.926Z,2.00
2022-11-09T11:36:32.945Z,2.10
2022-11-09T11:37:32.906Z,1.90
2022-11-09T11:38:32.903Z,1.80
2022-11-09T11:39:32.936Z,1.90
2022-11-09T11:40:32.884Z,1.80
2022-11-09T11:41:32.891Z,2.00
2022-11-09T11:42:32.861Z,2.10
2022-11-09T11:43:32.838Z,1.90
2022-11-09T11:44:32.844Z,2.00
2022-11-09T11:45:41.438Z,1.80
2022-11-09T11:46:34.847Z,1.80
2022-11-09T11:47:32.805Z,1.70
2022-11-09T11:48:32.813Z,1.70
2022-11-09T11:49:32.799Z,1.80
2022-11-09T11:50:32.799Z,1.70
2022-11-09T11:51:32.791Z,1.70
2022-11-09T11:52:32.754Z,1.90
2022-11-09T11:53:32.752Z,1.90
2022-11-09T11:54:32.751Z,1.90
2022-11-09T11:55:32.721Z,1.90
2022-11-09T11:56:32.730Z,1.90
2022-11-09T11:57:33.731Z,1.80
2022-11-09T11:58:32.709Z,1.80
2022-11-09T11:59:32.677Z,1.70
2022-11-09T12:00:32.681Z,1.80
2022-11-09T12:01:32.687Z,1.70
2022-11-09T12:02:32.729Z,1.70
2022-11-09T12:03:32.635Z,1.80
2022-11-09T12:04:32.647Z,1.70
2022-11-09T12:05:32.629Z,2.00
2022-11-09T12:06:32.674Z,1.80
2022-11-09T12:07:32.606Z,1.90
2022-11-09T12:08:32.602Z,1.70
2022-11-09T12:09:32.581Z,1.80
2022-11-09T12:10:32.578Z,1.70
2022-11-09T12:11:32.604Z,1.70
2022-11-09T12:12:32.554Z,1.90
2022-11-09T12:13:32.545Z,1.70
2022-11-09T12:14:32.523Z,1.80
2022-11-09T12:15:32.508Z,1.80
2022-11-09T12:16:32.536Z,1.70
2022-11-09T12:17:32.500Z,1.80
2022-11-09T12:18:32.487Z,1.80
2022-11-09T12:19:35.519Z,1.70
2022-11-09T12:20:32.473Z,1.80
2022-11-09T12:21:32.482Z,1.70
2022-11-09T12:22:32.445Z,1.60
2022-11-09T12:23:32.452Z,1.70
2022-11-09T12:24:32.433Z,1.80
2022-11-09T12:25:32.421Z,1.70
2022-11-09T12:26:32.427Z,1.60
2022-11-09T12:27:33.405Z,1.70
2022-11-09T12:28:33.394Z,1.90
2022-11-09T12:29:32.386Z,1.80
2022-11-09T12:30:32.372Z,1.70
2022-11-09T12:31:32.382Z,1.80
2022-11-09T12:32:32.352Z,1.70
2022-11-09T12:33:34.874Z,1.80
2022-11-09T12:34:33.339Z,1.60
2022-11-09T12:35:32.315Z,1.70
2022-11-09T12:36:32.396Z,1.80
2022-11-09T12:37:32.291Z,1.90
2022-11-09T12:38:33.300Z,1.70
2022-11-09T12:39:32.278Z,1.80
2022-11-09T12:40:32.275Z,1.80
2022-11-09T12:41:32.280Z,1.80
2022-11-09T12:42:32.259Z,1.50
2022-11-09T12:43:32.240Z,1.60
2022-11-09T12:44:32.243Z,1.70
2022-11-09T12:45:32.224Z,1.70
2022-11-09T12:46:32.234Z,2.20
2022-11-09T12:47:32.203Z,2.00
2022-11-09T12:48:32.195Z,2.10
2022-11-09T12:49:32.177Z,1.80
2022-11-09T12:50:32.166Z,2.30
2022-11-09T12:51:32.172Z,2.10
2022-11-09T12:52:32.148Z,1.90
2022-11-09T12:53:32.132Z,2.00
2022-11-09T12:54:32.125Z,2.20
2022-11-09T12:55:32.125Z,4.40
2022-11-09T12:56:32.119Z,2.70
2022-11-09T12:57:33.096Z,2.50
2022-11-09T12:58:32.077Z,4.00
2022-11-09T12:59:32.081Z,9.20
2022-11-09T13:00:32.068Z,5.30
2022-11-09T13:01:32.099Z,2.60
2022-11-09T13:02:32.040Z,2.60
2022-11-09T13:03:32.043Z,2.00
2022-11-09T13:04:32.030Z,3.40
2022-11-09T13:05:32.015Z,2.30
2022-11-09T13:06:32.074Z,1.70
2022-11-09T13:07:31.997Z,1.90
2022-11-09T13:08:31.994Z,1.70
2022-11-09T13:09:43.934Z,1.40
2022-11-09T13:10:33.993Z,1.60
2022-11-09T13:11:31.969Z,1.60
2022-11-09T13:12:31.947Z,1.70
2022-11-09T13:13:31.937Z,1.90
2022-11-09T13:14:31.909Z,1.70
2022-11-09T13:15:31.929Z,1.70
2022-11-09T13:16:31.908Z,1.50
2022-11-09T13:17:31.897Z,1.50
2022-11-09T13:18:35.598Z,1.50
2022-11-09T13:19:32.872Z,1.70
2022-11-09T13:20:53.508Z,1.70